
Distance (Route):
Temperature : -48.6°C
Humidity : 0%
Pressure : 0hPa| Receiver | Frames | First received | Last received |
|---|---|---|---|
| WB7NNF | 233 | 2026-08-31 05:25:13 | 2026-08-31 07:34:41 |
| Receiver | Date | Latitude | Longitude | Direction | Speed | Altitude | Climb | Temperature | Humidity | Pressure | Voltage | Killtimer | Uptime | BKT | XDATA |
|---|---|---|---|---|---|---|---|---|---|---|---|---|---|---|---|
| WB7NNF | 2026-08-31 07:34:41 | 47.51332 | -116.59582 | 118° | 95km/h | 10548m | -8.9m/s | -48.6°C | 0% | 0hPa | 0V | 00:00:00 | 00:00:00 | 00:00:00 | |
| WB7NNF | 2026-08-31 07:34:19 | 47.51559 | -116.60264 | 118° | 100km/h | 10736m | -8.7m/s | -49.9°C | 0% | 0hPa | 0V | 00:00:00 | 00:00:00 | 00:00:00 | |
| WB7NNF | 2026-08-31 07:33:53 | 47.51906 | -116.61089 | 126° | 100km/h | 10970m | -8.9m/s | -51.6°C | 0% | 0hPa | 0V | 00:00:00 | 00:00:00 | 00:00:00 | |
| WB7NNF | 2026-08-31 07:33:33 | 47.52210 | -116.61709 | 127° | 108km/h | 11149m | -9.0m/s | -52.8°C | 0% | 0hPa | 0V | 00:00:00 | 00:00:00 | 00:00:00 | |
| WB7NNF | 2026-08-31 07:33:12 | 47.52532 | -116.62430 | 124° | 113km/h | 11338m | -8.8m/s | -53.7°C | 0% | 0hPa | 0V | 00:00:00 | 00:00:00 | 00:00:00 | |
| WB7NNF | 2026-08-31 07:32:52 | 47.52856 | -116.63201 | 121° | 119km/h | 11532m | -8.8m/s | -54.8°C | 0% | 0hPa | 0V | 00:00:00 | 00:00:00 | 00:00:00 | |
| WB7NNF | 2026-08-31 07:32:31 | 47.53176 | -116.64049 | 119° | 124km/h | 11724m | -9.1m/s | -55.9°C | 0% | 0hPa | 0V | 00:00:00 | 00:00:00 | 00:00:00 | |
| WB7NNF | 2026-08-31 07:32:10 | 47.53466 | -116.64855 | 120° | 119km/h | 11910m | -9.2m/s | -56.7°C | 0% | 0hPa | 0V | 00:00:00 | 00:00:00 | 00:00:00 | |
| WB7NNF | 2026-08-31 07:31:48 | 47.53719 | -116.65718 | 110° | 108km/h | 12126m | -9.2m/s | -56.9°C | 0% | 0hPa | 0V | 00:00:00 | 00:00:00 | 00:00:00 | |
| WB7NNF | 2026-08-31 07:31:28 | 47.53864 | -116.66523 | 103° | 117km/h | 12317m | -9.4m/s | -56.1°C | 0% | 0hPa | 0V | 00:00:00 | 00:00:00 | 00:00:00 | |
| WB7NNF | 2026-08-31 07:31:07 | 47.54026 | -116.67329 | 110° | 93km/h | 12522m | -9.6m/s | -55.0°C | 0% | 0hPa | 0V | 00:00:00 | 00:00:00 | 00:00:00 | |
| WB7NNF | 2026-08-31 07:30:45 | 47.54137 | -116.68042 | 104° | 91km/h | 12735m | -10.3m/s | -53.9°C | 0% | 0hPa | 0V | 00:00:00 | 00:00:00 | 00:00:00 | |
| WB7NNF | 2026-08-31 07:30:04 | 47.54325 | -116.69075 | 102° | 62km/h | 13148m | -10.1m/s | -54.7°C | 0% | 0hPa | 0V | 00:00:00 | 00:00:00 | 00:00:00 | |
| WB7NNF | 2026-08-31 07:29:40 | 47.54419 | -116.69670 | 103° | 73km/h | 13409m | -10.6m/s | -55.8°C | 0% | 0hPa | 0V | 00:00:00 | 00:00:00 | 00:00:00 | |
| WB7NNF | 2026-08-31 07:29:17 | 47.54545 | -116.70273 | 109° | 69km/h | 13652m | -10.5m/s | -55.3°C | 0% | 0hPa | 0V | 00:00:00 | 00:00:00 | 00:00:00 | |
| WB7NNF | 2026-08-31 07:28:45 | 47.54634 | -116.70969 | 94° | 53km/h | 13989m | -11.0m/s | -54.7°C | 0% | 0hPa | 0V | 00:00:00 | 00:00:00 | 00:00:00 | |
| WB7NNF | 2026-08-31 07:28:16 | 47.54600 | -116.71593 | 87° | 55km/h | 14322m | -10.4m/s | -54.1°C | 0% | 0hPa | 0V | 00:00:00 | 00:00:00 | 00:00:00 | |
| WB7NNF | 2026-08-31 07:27:51 | 47.54588 | -116.72069 | 89° | 51km/h | 14602m | -11.1m/s | -55.2°C | 0% | 0hPa | 0V | 00:00:00 | 00:00:00 | 00:00:00 | |
| WB7NNF | 2026-08-31 07:14:36 | 47.52606 | -116.76791 | 121° | 11km/h | 28613m | -38.6m/s | -45.0°C | 0% | 0hPa | 0V | 00:00:00 | 00:00:00 | 00:00:00 | |
| WB7NNF | 2026-08-31 07:08:15 | 47.53809 | -116.77892 | 114° | 55km/h | 35196m | 3.7m/s | -35.7°C | 0% | 0hPa | 0V | 00:00:00 | 00:00:00 | 00:00:00 | |
| WB7NNF | 2026-08-31 07:07:47 | 47.54034 | -116.78053 | 127° | 42km/h | 35040m | 5.4m/s | -35.7°C | 0% | 0hPa | 0V | 00:00:00 | 00:00:00 | 00:00:00 | |
| WB7NNF | 2026-08-31 07:07:25 | 47.54221 | -116.78094 | 152° | 37km/h | 34929m | 6.7m/s | -35.9°C | 0% | 0hPa | 0V | 00:00:00 | 00:00:00 | 00:00:00 | |
| WB7NNF | 2026-08-31 07:07:03 | 47.54484 | -116.78191 | 199° | 75km/h | 34816m | 1.2m/s | -35.9°C | 0% | 0hPa | 0V | 00:00:00 | 00:00:00 | 00:00:00 | |
| WB7NNF | 2026-08-31 07:06:34 | 47.54876 | -116.78359 | 183° | 66km/h | 34636m | 1.6m/s | -36.1°C | 0% | 0hPa | 0V | 00:00:00 | 00:00:00 | 00:00:00 | |
| WB7NNF | 2026-08-31 07:06:08 | 47.55079 | -116.78577 | 172° | 68km/h | 34533m | 1.2m/s | -36.3°C | 0% | 0hPa | 0V | 00:00:00 | 00:00:00 | 00:00:00 | |
| WB7NNF | 2026-08-31 07:05:48 | 47.55258 | -116.78856 | 135° | 68km/h | 34428m | 5.2m/s | -36.8°C | 0% | 0hPa | 0V | 00:00:00 | 00:00:00 | 00:00:00 | |
| WB7NNF | 2026-08-31 07:05:27 | 47.55396 | -116.79147 | 128° | 80km/h | 34324m | 6.2m/s | -37.8°C | 0% | 0hPa | 0V | 00:00:00 | 00:00:00 | 00:00:00 | |
| WB7NNF | 2026-08-31 07:05:06 | 47.55561 | -116.79612 | 144° | 31km/h | 34200m | 8.7m/s | -38.3°C | 0% | 0hPa | 0V | 00:00:00 | 00:00:00 | 00:00:00 | |
| WB7NNF | 2026-08-31 07:04:40 | 47.55688 | -116.79990 | 142° | 82km/h | 34092m | 0.9m/s | -38.1°C | 0% | 0hPa | 0V | 00:00:00 | 00:00:00 | 00:00:00 | |
| WB7NNF | 2026-08-31 07:04:14 | 47.55714 | -116.80395 | 122° | 11km/h | 33972m | 1.7m/s | -38.3°C | 0% | 0hPa | 0V | 00:00:00 | 00:00:00 | 00:00:00 | |
| WB7NNF | 2026-08-31 07:03:54 | 47.55705 | -116.80618 | 136° | 31km/h | 33867m | 7.3m/s | -38.7°C | 0% | 0hPa | 0V | 00:00:00 | 00:00:00 | 00:00:00 | |
| WB7NNF | 2026-08-31 07:03:32 | 47.55669 | -116.80769 | 93° | 62km/h | 33757m | 6.2m/s | -39.0°C | 0% | 0hPa | 0V | 00:00:00 | 00:00:00 | 00:00:00 | |
| WB7NNF | 2026-08-31 07:03:07 | 47.55657 | -116.80920 | 190° | 44km/h | 33623m | 0.3m/s | -39.6°C | 0% | 0hPa | 0V | 00:00:00 | 00:00:00 | 00:00:00 | |
| WB7NNF | 2026-08-31 07:02:28 | 47.55718 | -116.81403 | 149° | 58km/h | 33419m | 3.8m/s | -40.7°C | 0% | 0hPa | 0V | 00:00:00 | 00:00:00 | 00:00:00 | |
| WB7NNF | 2026-08-31 07:02:07 | 47.55696 | -116.81604 | 114° | 49km/h | 33313m | 1.0m/s | -41.6°C | 0% | 0hPa | 0V | 00:00:00 | 00:00:00 | 00:00:00 | |
| WB7NNF | 2026-08-31 07:01:12 | 47.55625 | -116.81959 | 116° | 60km/h | 33007m | 8.7m/s | -42.8°C | 0% | 0hPa | 0V | 00:00:00 | 00:00:00 | 00:00:00 | |
| WB7NNF | 2026-08-31 07:00:48 | 47.55564 | -116.82180 | 249° | 27km/h | 32867m | 5.8m/s | -43.2°C | 0% | 0hPa | 0V | 00:00:00 | 00:00:00 | 00:00:00 | |
| WB7NNF | 2026-08-31 07:00:26 | 47.55508 | -116.82307 | 73° | 44km/h | 32745m | 9.3m/s | -43.0°C | 0% | 0hPa | 0V | 00:00:00 | 00:00:00 | 00:00:00 | |
| WB7NNF | 2026-08-31 07:00:00 | 47.55385 | -116.82393 | 193° | 24km/h | 32599m | 5.6m/s | -43.4°C | 0% | 0hPa | 0V | 00:00:00 | 00:00:00 | 00:00:00 | |
| WB7NNF | 2026-08-31 06:59:40 | 47.55312 | -116.82487 | 52° | 18km/h | 32487m | 4.3m/s | -43.7°C | 0% | 0hPa | 0V | 00:00:00 | 00:00:00 | 00:00:00 | |
| WB7NNF | 2026-08-31 06:59:05 | 47.55033 | -116.82565 | 42° | 18km/h | 32284m | 10.5m/s | -44.2°C | 0% | 0hPa | 0V | 00:00:00 | 00:00:00 | 00:00:00 | |
| WB7NNF | 2026-08-31 06:58:24 | 47.54917 | -116.82681 | 143° | 38km/h | 32047m | 2.6m/s | -44.5°C | 0% | 0hPa | 0V | 00:00:00 | 00:00:00 | 00:00:00 | |
| WB7NNF | 2026-08-31 06:57:59 | 47.54905 | -116.82819 | 121° | 9km/h | 31908m | 5.8m/s | -44.7°C | 0% | 0hPa | 0V | 00:00:00 | 00:00:00 | 00:00:00 | |
| WB7NNF | 2026-08-31 06:57:39 | 47.54873 | -116.82894 | 69° | 7km/h | 31793m | 7.5m/s | -44.6°C | 0% | 0hPa | 0V | 00:00:00 | 00:00:00 | 00:00:00 | |
| WB7NNF | 2026-08-31 06:57:10 | 47.54751 | -116.82872 | 237° | 7km/h | 31639m | 2.3m/s | -45.3°C | 0% | 0hPa | 0V | 00:00:00 | 00:00:00 | 00:00:00 | |
| WB7NNF | 2026-08-31 06:55:58 | 47.54486 | -116.82326 | 254° | 24km/h | 31266m | 6.5m/s | -45.7°C | 0% | 0hPa | 0V | 00:00:00 | 00:00:00 | 00:00:00 | |
| WB7NNF | 2026-08-31 06:55:27 | 47.54609 | -116.82204 | 142° | 22km/h | 31089m | 5.0m/s | -45.2°C | 0% | 0hPa | 0V | 00:00:00 | 00:00:00 | 00:00:00 | |
| WB7NNF | 2026-08-31 06:53:03 | 47.55114 | -116.81774 | 173° | 37km/h | 30283m | 4.4m/s | -43.1°C | 0% | 0hPa | 0V | 00:00:00 | 00:00:00 | 00:00:00 | |
| WB7NNF | 2026-08-31 06:52:37 | 47.55189 | -116.81710 | 161° | 38km/h | 30136m | 5.0m/s | -43.1°C | 0% | 0hPa | 0V | 00:00:00 | 00:00:00 | 00:00:00 | |
| WB7NNF | 2026-08-31 06:52:03 | 47.55314 | -116.81555 | 139° | 4km/h | 29956m | 6.4m/s | -43.6°C | 0% | 0hPa | 0V | 00:00:00 | 00:00:00 | 00:00:00 | |
| WB7NNF | 2026-08-31 06:51:35 | 47.55374 | -116.81538 | 137° | 27km/h | 29808m | 4.6m/s | -43.7°C | 0% | 0hPa | 0V | 00:00:00 | 00:00:00 | 00:00:00 | |
| WB7NNF | 2026-08-31 06:51:11 | 47.55423 | -116.81442 | 213° | 26km/h | 29683m | 6.5m/s | -43.4°C | 0% | 0hPa | 0V | 00:00:00 | 00:00:00 | 00:00:00 | |
| WB7NNF | 2026-08-31 06:50:25 | 47.55557 | -116.81244 | 255° | 27km/h | 29435m | 1.5m/s | -44.2°C | 0% | 0hPa | 0V | 00:00:00 | 00:00:00 | 00:00:00 | |
| WB7NNF | 2026-08-31 06:49:26 | 47.55939 | -116.81359 | 106° | 47km/h | 29149m | 4.5m/s | -44.6°C | 0% | 0hPa | 0V | 00:00:00 | 00:00:00 | 00:00:00 | |
| WB7NNF | 2026-08-31 06:48:34 | 47.56121 | -116.81775 | 68° | 33km/h | 28867m | 5.8m/s | -44.9°C | 0% | 0hPa | 0V | 00:00:00 | 00:00:00 | 00:00:00 | |
| WB7NNF | 2026-08-31 06:48:07 | 47.56090 | -116.81891 | 95° | 49km/h | 28714m | 4.5m/s | -45.2°C | 0% | 0hPa | 0V | 00:00:00 | 00:00:00 | 00:00:00 | |
| WB7NNF | 2026-08-31 06:47:40 | 47.56037 | -116.81969 | 85° | 31km/h | 28570m | 3.3m/s | -45.4°C | 0% | 0hPa | 0V | 00:00:00 | 00:00:00 | 00:00:00 | |
| WB7NNF | 2026-08-31 06:47:15 | 47.56068 | -116.82007 | 59° | 22km/h | 28426m | 4.0m/s | -45.9°C | 0% | 0hPa | 0V | 00:00:00 | 00:00:00 | 00:00:00 | |
| WB7NNF | 2026-08-31 06:46:29 | 47.55994 | -116.82220 | 311° | 31km/h | 28170m | 3.2m/s | -46.6°C | 0% | 0hPa | 0V | 00:00:00 | 00:00:00 | 00:00:00 | |
| WB7NNF | 2026-08-31 06:45:53 | 47.55888 | -116.82208 | 63° | 29km/h | 27976m | 5.7m/s | -46.7°C | 0% | 0hPa | 0V | 00:00:00 | 00:00:00 | 00:00:00 | |
| WB7NNF | 2026-08-31 06:45:21 | 47.55861 | -116.82184 | 140° | 11km/h | 27810m | 5.5m/s | -46.7°C | 0% | 0hPa | 0V | 00:00:00 | 00:00:00 | 00:00:00 | |
| WB7NNF | 2026-08-31 06:40:13 | 47.55476 | -116.81980 | 297° | 15km/h | 26189m | 5.9m/s | -48.5°C | 0% | 0hPa | 0V | 00:00:00 | 00:00:00 | 00:00:00 | |
| WB7NNF | 2026-08-31 06:39:29 | 47.55539 | -116.81621 | 196° | 24km/h | 25960m | 6.5m/s | -48.4°C | 0% | 0hPa | 0V | 00:00:00 | 00:00:00 | 00:00:00 | |
| WB7NNF | 2026-08-31 06:39:03 | 47.55643 | -116.81568 | 160° | 40km/h | 25824m | 4.1m/s | -48.9°C | 0% | 0hPa | 0V | 00:00:00 | 00:00:00 | 00:00:00 | |
| WB7NNF | 2026-08-31 06:38:27 | 47.55710 | -116.81687 | 95° | 33km/h | 25628m | 4.3m/s | -48.3°C | 0% | 0hPa | 0V | 00:00:00 | 00:00:00 | 00:00:00 | |
| WB7NNF | 2026-08-31 06:37:31 | 47.55552 | -116.81957 | 343° | 16km/h | 25327m | 4.9m/s | -49.7°C | 0% | 0hPa | 0V | 00:00:00 | 00:00:00 | 00:00:00 | |
| WB7NNF | 2026-08-31 06:36:56 | 47.55342 | -116.82063 | 8° | 20km/h | 25125m | 3.3m/s | -50.4°C | 0% | 0hPa | 0V | 00:00:00 | 00:00:00 | 00:00:00 | |
| WB7NNF | 2026-08-31 06:36:33 | 47.55240 | -116.82067 | 7° | 11km/h | 25022m | 4.8m/s | -50.1°C | 0% | 0hPa | 0V | 00:00:00 | 00:00:00 | 00:00:00 | |
| WB7NNF | 2026-08-31 06:36:01 | 47.55198 | -116.81965 | 148° | 16km/h | 24855m | 5.8m/s | -50.6°C | 0% | 0hPa | 0V | 00:00:00 | 00:00:00 | 00:00:00 | |
| WB7NNF | 2026-08-31 06:35:26 | 47.55147 | -116.81883 | 319° | 7km/h | 24679m | 4.4m/s | -50.5°C | 0% | 0hPa | 0V | 00:00:00 | 00:00:00 | 00:00:00 | |
| WB7NNF | 2026-08-31 06:35:05 | 47.55130 | -116.81865 | 220° | 13km/h | 24576m | 4.2m/s | -50.2°C | 0% | 0hPa | 0V | 00:00:00 | 00:00:00 | 00:00:00 | |
| WB7NNF | 2026-08-31 06:34:45 | 47.55122 | -116.81843 | 80° | 18km/h | 24468m | 5.3m/s | -50.1°C | 0% | 0hPa | 0V | 00:00:00 | 00:00:00 | 00:00:00 | |
| WB7NNF | 2026-08-31 06:34:22 | 47.55116 | -116.81875 | 118° | 9km/h | 24362m | 5.6m/s | -49.9°C | 0% | 0hPa | 0V | 00:00:00 | 00:00:00 | 00:00:00 | |
| WB7NNF | 2026-08-31 06:34:00 | 47.55116 | -116.81949 | 95° | 31km/h | 24252m | 3.8m/s | -49.6°C | 0% | 0hPa | 0V | 00:00:00 | 00:00:00 | 00:00:00 | |
| WB7NNF | 2026-08-31 06:33:32 | 47.55120 | -116.82027 | 337° | 11km/h | 24111m | 5.0m/s | -50.3°C | 0% | 0hPa | 0V | 00:00:00 | 00:00:00 | 00:00:00 | |
| WB7NNF | 2026-08-31 06:33:12 | 47.55090 | -116.82088 | 30° | 4km/h | 24004m | 3.7m/s | -50.1°C | 0% | 0hPa | 0V | 00:00:00 | 00:00:00 | 00:00:00 | |
| WB7NNF | 2026-08-31 06:32:48 | 47.54968 | -116.82153 | 29° | 18km/h | 23882m | 6.4m/s | -50.4°C | 0% | 0hPa | 0V | 00:00:00 | 00:00:00 | 00:00:00 | |
| WB7NNF | 2026-08-31 06:32:18 | 47.54849 | -116.82123 | 340° | 7km/h | 23735m | 2.8m/s | -51.2°C | 0% | 0hPa | 0V | 00:00:00 | 00:00:00 | 00:00:00 | |
| WB7NNF | 2026-08-31 06:31:55 | 47.54760 | -116.82118 | 17° | 20km/h | 23618m | 5.8m/s | -51.7°C | 0% | 0hPa | 0V | 00:00:00 | 00:00:00 | 00:00:00 | |
| WB7NNF | 2026-08-31 06:31:35 | 47.54682 | -116.82126 | 358° | 9km/h | 23513m | 4.2m/s | -51.2°C | 0% | 0hPa | 0V | 00:00:00 | 00:00:00 | 00:00:00 | |
| WB7NNF | 2026-08-31 06:31:12 | 47.54587 | -116.82066 | 288° | 18km/h | 23399m | 4.8m/s | -51.1°C | 0% | 0hPa | 0V | 00:00:00 | 00:00:00 | 00:00:00 | |
| WB7NNF | 2026-08-31 06:30:50 | 47.54520 | -116.81957 | 299° | 13km/h | 23294m | 5.5m/s | -51.0°C | 0% | 0hPa | 0V | 00:00:00 | 00:00:00 | 00:00:00 | |
| WB7NNF | 2026-08-31 06:30:22 | 47.54402 | -116.81799 | 299° | 31km/h | 23152m | 4.6m/s | -51.7°C | 0% | 0hPa | 0V | 00:00:00 | 00:00:00 | 00:00:00 | |
| WB7NNF | 2026-08-31 06:30:00 | 47.54344 | -116.81684 | 285° | 22km/h | 23045m | 6.2m/s | -51.7°C | 0% | 0hPa | 0V | 00:00:00 | 00:00:00 | 00:00:00 | |
| WB7NNF | 2026-08-31 06:26:42 | 47.54473 | -116.81228 | 178° | 13km/h | 22087m | 5.2m/s | -53.6°C | 0% | 0hPa | 0V | 00:00:00 | 00:00:00 | 00:00:00 | |
| WB7NNF | 2026-08-31 06:23:54 | 47.54669 | -116.81386 | 86° | 13km/h | 21294m | 4.4m/s | -52.7°C | 0% | 0hPa | 0V | 00:00:00 | 00:00:00 | 00:00:00 | |
| WB7NNF | 2026-08-31 06:22:39 | 47.54615 | -116.81557 | 35° | 26km/h | 20950m | 4.4m/s | -53.2°C | 0% | 0hPa | 0V | 00:00:00 | 00:00:00 | 00:00:00 | |
| WB7NNF | 2026-08-31 06:22:12 | 47.54469 | -116.81563 | 358° | 22km/h | 20832m | 3.9m/s | -53.7°C | 0% | 0hPa | 0V | 00:00:00 | 00:00:00 | 00:00:00 | |
| WB7NNF | 2026-08-31 06:21:52 | 47.54366 | -116.81506 | 6° | 37km/h | 20740m | 3.3m/s | -53.6°C | 0% | 0hPa | 0V | 00:00:00 | 00:00:00 | 00:00:00 | |
| WB7NNF | 2026-08-31 06:21:28 | 47.54240 | -116.81386 | 276° | 26km/h | 20632m | 3.9m/s | -53.3°C | 0% | 0hPa | 0V | 00:00:00 | 00:00:00 | 00:00:00 | |
| WB7NNF | 2026-08-31 06:21:07 | 47.54210 | -116.81316 | 327° | 11km/h | 20524m | 5.5m/s | -53.3°C | 0% | 0hPa | 0V | 00:00:00 | 00:00:00 | 00:00:00 | |
| WB7NNF | 2026-08-31 06:20:45 | 47.54216 | -116.81325 | 69° | 16km/h | 20423m | 4.3m/s | -53.1°C | 0% | 0hPa | 0V | 00:00:00 | 00:00:00 | 00:00:00 | |
| WB7NNF | 2026-08-31 06:20:22 | 47.54231 | -116.81385 | 131° | 7km/h | 20315m | 5.3m/s | -53.0°C | 0% | 0hPa | 0V | 00:00:00 | 00:00:00 | 00:00:00 | |
| WB7NNF | 2026-08-31 06:20:02 | 47.54222 | -116.81470 | 78° | 20km/h | 20216m | 4.0m/s | -53.1°C | 0% | 0hPa | 0V | 00:00:00 | 00:00:00 | 00:00:00 | |
| WB7NNF | 2026-08-31 06:19:41 | 47.54195 | -116.81557 | 64° | 16km/h | 20121m | 4.2m/s | -53.6°C | 0% | 0hPa | 0V | 00:00:00 | 00:00:00 | 00:00:00 | |
| WB7NNF | 2026-08-31 06:19:19 | 47.54175 | -116.81701 | 58° | 22km/h | 20021m | 3.3m/s | -54.0°C | 0% | 0hPa | 0V | 00:00:00 | 00:00:00 | 00:00:00 | |
| WB7NNF | 2026-08-31 06:18:57 | 47.54137 | -116.81839 | 46° | 18km/h | 19924m | 4.9m/s | -54.5°C | 0% | 0hPa | 0V | 00:00:00 | 00:00:00 | 00:00:00 | |
| WB7NNF | 2026-08-31 06:17:52 | 47.53891 | -116.82142 | 44° | 9km/h | 19642m | 5.8m/s | -54.7°C | 0% | 0hPa | 0V | 00:00:00 | 00:00:00 | 00:00:00 | |
| WB7NNF | 2026-08-31 06:16:05 | 47.53525 | -116.82250 | 325° | 15km/h | 19175m | 4.6m/s | 0°C | 0% | 0hPa | 0V | 00:00:00 | 00:00:00 | 00:00:00 | |
| WB7NNF | 2026-08-31 06:15:35 | 47.53424 | -116.82269 | 35° | 22km/h | 19048m | 3.9m/s | -53.9°C | 0% | 0hPa | 0V | 00:00:00 | 00:00:00 | 00:00:00 | |
| WB7NNF | 2026-08-31 06:15:13 | 47.53365 | -116.82345 | 49° | 4km/h | 18949m | 3.3m/s | -53.4°C | 0% | 0hPa | 0V | 00:00:00 | 00:00:00 | 00:00:00 | |
| WB7NNF | 2026-08-31 06:14:50 | 47.53314 | -116.82438 | 109° | 22km/h | 18816m | 4.1m/s | -52.7°C | 0% | 0hPa | 0V | 00:00:00 | 00:00:00 | 00:00:00 | |
| WB7NNF | 2026-08-31 06:14:23 | 47.53287 | -116.82554 | 92° | 15km/h | 18718m | 3.8m/s | -53.0°C | 0% | 0hPa | 0V | 00:00:00 | 00:00:00 | 00:00:00 | |
| WB7NNF | 2026-08-31 06:14:00 | 47.53279 | -116.82673 | 108° | 20km/h | 18615m | 5.0m/s | -53.3°C | 0% | 0hPa | 0V | 00:00:00 | 00:00:00 | 00:00:00 | |
| WB7NNF | 2026-08-31 06:13:39 | 47.53282 | -116.82889 | 90° | 42km/h | 18524m | 4.5m/s | -54.0°C | 0% | 0hPa | 0V | 00:00:00 | 00:00:00 | 00:00:00 | |
| WB7NNF | 2026-08-31 06:13:13 | 47.53232 | -116.83274 | 66° | 31km/h | 18404m | 4.1m/s | -54.0°C | 0% | 0hPa | 0V | 00:00:00 | 00:00:00 | 00:00:00 | |
| WB7NNF | 2026-08-31 06:12:49 | 47.53153 | -116.83555 | 52° | 35km/h | 18300m | 4.5m/s | -53.5°C | 0% | 0hPa | 0V | 00:00:00 | 00:00:00 | 00:00:00 | |
| WB7NNF | 2026-08-31 06:12:28 | 47.53052 | -116.83777 | 61° | 38km/h | 18207m | 4.2m/s | -53.7°C | 0% | 0hPa | 0V | 00:00:00 | 00:00:00 | 00:00:00 | |
| WB7NNF | 2026-08-31 06:12:06 | 47.52909 | -116.83960 | 39° | 33km/h | 18107m | 4.7m/s | -53.0°C | 0% | 0hPa | 0V | 00:00:00 | 00:00:00 | 00:00:00 | |
| WB7NNF | 2026-08-31 06:11:45 | 47.52807 | -116.84099 | 74° | 33km/h | 18021m | 4.2m/s | -52.5°C | 0% | 0hPa | 0V | 00:00:00 | 00:00:00 | 00:00:00 | |
| WB7NNF | 2026-08-31 06:11:22 | 47.52740 | -116.84230 | 79° | 15km/h | 17913m | 5.4m/s | -51.8°C | 0% | 0hPa | 0V | 00:00:00 | 00:00:00 | 00:00:00 | |
| WB7NNF | 2026-08-31 06:10:55 | 47.52705 | -116.84418 | 98° | 26km/h | 17800m | 3.9m/s | -51.6°C | 0% | 0hPa | 0V | 00:00:00 | 00:00:00 | 00:00:00 | |
| WB7NNF | 2026-08-31 06:10:35 | 47.52664 | -116.84643 | 65° | 35km/h | 17711m | 2.9m/s | -51.4°C | 0% | 0hPa | 0V | 00:00:00 | 00:00:00 | 00:00:00 | |
| WB7NNF | 2026-08-31 06:10:14 | 47.52604 | -116.84902 | 67° | 27km/h | 17627m | 4.6m/s | -52.0°C | 0% | 0hPa | 0V | 00:00:00 | 00:00:00 | 00:00:00 | |
| WB7NNF | 2026-08-31 06:09:53 | 47.52509 | -116.85145 | 60° | 33km/h | 17548m | 5.0m/s | -51.8°C | 0% | 0hPa | 0V | 00:00:00 | 00:00:00 | 00:00:00 | |
| WB7NNF | 2026-08-31 06:09:33 | 47.52419 | -116.85418 | 65° | 42km/h | 17466m | 4.8m/s | -52.4°C | 0% | 0hPa | 0V | 00:00:00 | 00:00:00 | 00:00:00 | |
| WB7NNF | 2026-08-31 06:09:12 | 47.52296 | -116.85712 | 63° | 47km/h | 17387m | 2.9m/s | -52.8°C | 0% | 0hPa | 0V | 00:00:00 | 00:00:00 | 00:00:00 | |
| WB7NNF | 2026-08-31 06:08:52 | 47.52171 | -116.85984 | 65° | 46km/h | 17299m | 4.1m/s | -53.8°C | 0% | 0hPa | 0V | 00:00:00 | 00:00:00 | 00:00:00 | |
| WB7NNF | 2026-08-31 06:08:31 | 47.52040 | -116.86223 | 47° | 46km/h | 17212m | 4.4m/s | -53.6°C | 0% | 0hPa | 0V | 00:00:00 | 00:00:00 | 00:00:00 | |
| WB7NNF | 2026-08-31 06:08:11 | 47.51910 | -116.86458 | 53° | 40km/h | 17122m | 5.2m/s | -53.3°C | 0% | 0hPa | 0V | 00:00:00 | 00:00:00 | 00:00:00 | |
| WB7NNF | 2026-08-31 06:07:50 | 47.51793 | -116.86649 | 52° | 24km/h | 17034m | 4.3m/s | -53.2°C | 0% | 0hPa | 0V | 00:00:00 | 00:00:00 | 00:00:00 | |
| WB7NNF | 2026-08-31 06:07:30 | 47.51684 | -116.86906 | 59° | 46km/h | 16942m | 3.7m/s | -53.1°C | 0% | 0hPa | 0V | 00:00:00 | 00:00:00 | 00:00:00 | |
| WB7NNF | 2026-08-31 06:07:09 | 47.51582 | -116.87118 | 34° | 26km/h | 16855m | 3.4m/s | -52.6°C | 0% | 0hPa | 0V | 00:00:00 | 00:00:00 | 00:00:00 | |
| WB7NNF | 2026-08-31 06:06:49 | 47.51490 | -116.87296 | 53° | 22km/h | 16766m | 4.8m/s | -52.6°C | 0% | 0hPa | 0V | 00:00:00 | 00:00:00 | 00:00:00 | |
| WB7NNF | 2026-08-31 06:06:28 | 47.51445 | -116.87486 | 86° | 29km/h | 16679m | 3.7m/s | -52.6°C | 0% | 0hPa | 0V | 00:00:00 | 00:00:00 | 00:00:00 | |
| WB7NNF | 2026-08-31 06:06:08 | 47.51394 | -116.87758 | 61° | 31km/h | 16594m | 5.5m/s | -52.9°C | 0% | 0hPa | 0V | 00:00:00 | 00:00:00 | 00:00:00 | |
| WB7NNF | 2026-08-31 06:05:45 | 47.51294 | -116.88090 | 54° | 53km/h | 16508m | 3.7m/s | -52.8°C | 0% | 0hPa | 0V | 00:00:00 | 00:00:00 | 00:00:00 | |
| WB7NNF | 2026-08-31 06:05:25 | 47.51162 | -116.88460 | 71° | 58km/h | 16426m | 3.5m/s | -53.9°C | 0% | 0hPa | 0V | 00:00:00 | 00:00:00 | 00:00:00 | |
| WB7NNF | 2026-08-31 06:05:04 | 47.50996 | -116.88814 | 57° | 60km/h | 16349m | 4.8m/s | -54.0°C | 0% | 0hPa | 0V | 00:00:00 | 00:00:00 | 00:00:00 | |
| WB7NNF | 2026-08-31 06:04:44 | 47.50819 | -116.89152 | 56° | 49km/h | 16270m | 4.7m/s | -53.8°C | 0% | 0hPa | 0V | 00:00:00 | 00:00:00 | 00:00:00 | |
| WB7NNF | 2026-08-31 06:04:23 | 47.50690 | -116.89423 | 62° | 31km/h | 16193m | 3.6m/s | -53.9°C | 0% | 0hPa | 0V | 00:00:00 | 00:00:00 | 00:00:00 | |
| WB7NNF | 2026-08-31 06:03:42 | 47.50547 | -116.89861 | 71° | 29km/h | 16026m | 3.4m/s | -54.9°C | 0% | 0hPa | 0V | 00:00:00 | 00:00:00 | 00:00:00 | |
| WB7NNF | 2026-08-31 06:03:21 | 47.50458 | -116.90141 | 71° | 47km/h | 15941m | 3.0m/s | -55.1°C | 0% | 0hPa | 0V | 00:00:00 | 00:00:00 | 00:00:00 | |
| WB7NNF | 2026-08-31 06:03:01 | 47.50406 | -116.90456 | 73° | 47km/h | 15858m | 4.1m/s | -55.3°C | 0% | 0hPa | 0V | 00:00:00 | 00:00:00 | 00:00:00 | |
| WB7NNF | 2026-08-31 06:02:37 | 47.50347 | -116.90871 | 80° | 47km/h | 15762m | 3.5m/s | -55.7°C | 0% | 0hPa | 0V | 00:00:00 | 00:00:00 | 00:00:00 | |
| WB7NNF | 2026-08-31 06:02:03 | 47.50224 | -116.91419 | 82° | 31km/h | 15616m | 4.0m/s | -55.4°C | 0% | 0hPa | 0V | 00:00:00 | 00:00:00 | 00:00:00 | |
| WB7NNF | 2026-08-31 06:01:41 | 47.50188 | -116.91741 | 91° | 49km/h | 15522m | 2.8m/s | -55.6°C | 0% | 0hPa | 0V | 00:00:00 | 00:00:00 | 00:00:00 | |
| WB7NNF | 2026-08-31 06:01:15 | 47.50100 | -116.92181 | 76° | 46km/h | 15410m | 4.4m/s | -55.5°C | 0% | 0hPa | 0V | 00:00:00 | 00:00:00 | 00:00:00 | |
| WB7NNF | 2026-08-31 06:00:54 | 47.49973 | -116.92594 | 61° | 66km/h | 15320m | 4.4m/s | -56.2°C | 0% | 0hPa | 0V | 00:00:00 | 00:00:00 | 00:00:00 | |
| WB7NNF | 2026-08-31 06:00:33 | 47.49840 | -116.92908 | 46° | 49km/h | 15235m | 3.9m/s | -56.7°C | 0% | 0hPa | 0V | 00:00:00 | 00:00:00 | 00:00:00 | |
| WB7NNF | 2026-08-31 06:00:13 | 47.49733 | -116.93193 | 65° | 38km/h | 15148m | 5.0m/s | -57.0°C | 0% | 0hPa | 0V | 00:00:00 | 00:00:00 | 00:00:00 | |
| WB7NNF | 2026-08-31 05:59:51 | 47.49670 | -116.93492 | 78° | 40km/h | 15061m | 3.5m/s | -56.8°C | 0% | 0hPa | 0V | 00:00:00 | 00:00:00 | 00:00:00 | |
| WB7NNF | 2026-08-31 05:59:30 | 47.49610 | -116.93774 | 71° | 44km/h | 14967m | 5.0m/s | -56.2°C | 0% | 0hPa | 0V | 00:00:00 | 00:00:00 | 00:00:00 | |
| WB7NNF | 2026-08-31 05:59:09 | 47.49565 | -116.94025 | 80° | 37km/h | 14883m | 4.1m/s | -55.5°C | 0% | 0hPa | 0V | 00:00:00 | 00:00:00 | 00:00:00 | |
| WB7NNF | 2026-08-31 05:58:49 | 47.49542 | -116.94290 | 92° | 31km/h | 14791m | 3.8m/s | -54.8°C | 0% | 0hPa | 0V | 00:00:00 | 00:00:00 | 00:00:00 | |
| WB7NNF | 2026-08-31 05:58:28 | 47.49531 | -116.94536 | 92° | 37km/h | 14708m | 4.8m/s | -54.8°C | 0% | 0hPa | 0V | 00:00:00 | 00:00:00 | 00:00:00 | |
| WB7NNF | 2026-08-31 05:58:08 | 47.49528 | -116.94830 | 88° | 46km/h | 14619m | 4.8m/s | -54.1°C | 0% | 0hPa | 0V | 00:00:00 | 00:00:00 | 00:00:00 | |
| WB7NNF | 2026-08-31 05:57:47 | 47.49518 | -116.95129 | 91° | 42km/h | 14533m | 4.0m/s | -53.8°C | 0% | 0hPa | 0V | 00:00:00 | 00:00:00 | 00:00:00 | |
| WB7NNF | 2026-08-31 05:57:27 | 47.49523 | -116.95490 | 105° | 42km/h | 14446m | 3.2m/s | -53.4°C | 0% | 0hPa | 0V | 00:00:00 | 00:00:00 | 00:00:00 | |
| WB7NNF | 2026-08-31 05:57:06 | 47.49530 | -116.95873 | 92° | 64km/h | 14363m | 4.8m/s | -53.2°C | 0% | 0hPa | 0V | 00:00:00 | 00:00:00 | 00:00:00 | |
| WB7NNF | 2026-08-31 05:56:46 | 47.49538 | -116.96330 | 96° | 64km/h | 14277m | 3.8m/s | -53.2°C | 0% | 0hPa | 0V | 00:00:00 | 00:00:00 | 00:00:00 | |
| WB7NNF | 2026-08-31 05:56:25 | 47.49544 | -116.96789 | 89° | 66km/h | 14196m | 3.3m/s | -53.1°C | 0% | 0hPa | 0V | 00:00:00 | 00:00:00 | 00:00:00 | |
| WB7NNF | 2026-08-31 05:56:05 | 47.49547 | -116.97262 | 91° | 66km/h | 14110m | 4.8m/s | -54.0°C | 0% | 0hPa | 0V | 00:00:00 | 00:00:00 | 00:00:00 | |
| WB7NNF | 2026-08-31 05:55:22 | 47.49592 | -116.98209 | 100° | 58km/h | 13940m | 4.5m/s | -54.1°C | 0% | 0hPa | 0V | 00:00:00 | 00:00:00 | 00:00:00 | |
| WB7NNF | 2026-08-31 05:55:01 | 47.49610 | -116.98656 | 97° | 57km/h | 13855m | 4.3m/s | 0°C | 0% | 0hPa | 0V | 00:00:00 | 00:00:00 | 00:00:00 | |
| WB7NNF | 2026-08-31 05:54:24 | 47.49754 | -116.99521 | 111° | 71km/h | 13704m | 4.5m/s | -54.3°C | 0% | 0hPa | 0V | 00:00:00 | 00:00:00 | 00:00:00 | |
| WB7NNF | 2026-08-31 05:53:48 | 47.49955 | -117.00558 | 107° | 93km/h | 13559m | 4.4m/s | -54.4°C | 0% | 0hPa | 0V | 00:00:00 | 00:00:00 | 00:00:00 | |
| WB7NNF | 2026-08-31 05:53:07 | 47.50158 | -117.01896 | 97° | 100km/h | 13392m | 4.0m/s | -55.3°C | 0% | 0hPa | 0V | 00:00:00 | 00:00:00 | 00:00:00 | |
| WB7NNF | 2026-08-31 05:52:38 | 47.50253 | -117.02866 | 102° | 84km/h | 13271m | 4.8m/s | -54.8°C | 0% | 0hPa | 0V | 00:00:00 | 00:00:00 | 00:00:00 | |
| WB7NNF | 2026-08-31 05:52:17 | 47.50323 | -117.03512 | 102° | 78km/h | 13181m | 4.1m/s | -54.3°C | 0% | 0hPa | 0V | 00:00:00 | 00:00:00 | 00:00:00 | |
| WB7NNF | 2026-08-31 05:51:56 | 47.50411 | -117.04088 | 106° | 73km/h | 13096m | 4.0m/s | -55.0°C | 0% | 0hPa | 0V | 00:00:00 | 00:00:00 | 00:00:00 | |
| WB7NNF | 2026-08-31 05:51:36 | 47.50521 | -117.04671 | 94° | 66km/h | 13010m | 3.1m/s | -55.0°C | 0% | 0hPa | 0V | 00:00:00 | 00:00:00 | 00:00:00 | |
| WB7NNF | 2026-08-31 05:51:15 | 47.50638 | -117.05207 | 105° | 73km/h | 12921m | 3.4m/s | -55.1°C | 0% | 0hPa | 0V | 00:00:00 | 00:00:00 | 00:00:00 | |
| WB7NNF | 2026-08-31 05:50:55 | 47.50781 | -117.05833 | 107° | 88km/h | 12829m | 4.6m/s | -55.7°C | 0% | 0hPa | 0V | 00:00:00 | 00:00:00 | 00:00:00 | |
| WB7NNF | 2026-08-31 05:50:34 | 47.50888 | -117.06487 | 105° | 80km/h | 12744m | 4.9m/s | -55.8°C | 0% | 0hPa | 0V | 00:00:00 | 00:00:00 | 00:00:00 | |
| WB7NNF | 2026-08-31 05:49:53 | 47.51113 | -117.07739 | 108° | 82km/h | 12558m | 5.1m/s | -54.8°C | 0% | 0hPa | 0V | 00:00:00 | 00:00:00 | 00:00:00 | |
| WB7NNF | 2026-08-31 05:49:33 | 47.51262 | -117.08394 | 106° | 89km/h | 12470m | 4.2m/s | -54.4°C | 0% | 0hPa | 0V | 00:00:00 | 00:00:00 | 00:00:00 | |
| WB7NNF | 2026-08-31 05:49:12 | 47.51419 | -117.09011 | 115° | 88km/h | 12388m | 4.0m/s | -54.8°C | 0% | 0hPa | 0V | 00:00:00 | 00:00:00 | 00:00:00 | |
| WB7NNF | 2026-08-31 05:48:52 | 47.51602 | -117.09761 | 112° | 106km/h | 12282m | 3.7m/s | -55.1°C | 0% | 0hPa | 0V | 00:00:00 | 00:00:00 | 00:00:00 | |
| WB7NNF | 2026-08-31 05:48:31 | 47.51757 | -117.10538 | 109° | 115km/h | 12200m | 3.9m/s | -55.7°C | 0% | 0hPa | 0V | 00:00:00 | 00:00:00 | 00:00:00 | |
| WB7NNF | 2026-08-31 05:48:11 | 47.51925 | -117.11328 | 109° | 104km/h | 12106m | 3.5m/s | -56.2°C | 0% | 0hPa | 0V | 00:00:00 | 00:00:00 | 00:00:00 | |
| WB7NNF | 2026-08-31 05:47:49 | 47.52158 | -117.12095 | 119° | 104km/h | 12016m | 4.7m/s | -56.7°C | 0% | 0hPa | 0V | 00:00:00 | 00:00:00 | 00:00:00 | |
| WB7NNF | 2026-08-31 05:47:29 | 47.52430 | -117.12837 | 119° | 113km/h | 11931m | 4.9m/s | -56.7°C | 0% | 0hPa | 0V | 00:00:00 | 00:00:00 | 00:00:00 | |
| WB7NNF | 2026-08-31 05:47:09 | 47.52728 | -117.13657 | 114° | 117km/h | 11840m | 2.4m/s | -56.2°C | 0% | 0hPa | 0V | 00:00:00 | 00:00:00 | 00:00:00 | |
| WB7NNF | 2026-08-31 05:46:48 | 47.53019 | -117.14467 | 116° | 122km/h | 11759m | 4.1m/s | -55.8°C | 0% | 0hPa | 0V | 00:00:00 | 00:00:00 | 00:00:00 | |
| WB7NNF | 2026-08-31 05:46:28 | 47.53325 | -117.15315 | 123° | 120km/h | 11675m | 4.2m/s | -55.5°C | 0% | 0hPa | 0V | 00:00:00 | 00:00:00 | 00:00:00 | |
| WB7NNF | 2026-08-31 05:46:07 | 47.53622 | -117.16107 | 122° | 120km/h | 11596m | 4.4m/s | -55.2°C | 0% | 0hPa | 0V | 00:00:00 | 00:00:00 | 00:00:00 | |
| WB7NNF | 2026-08-31 05:45:44 | 47.53976 | -117.17029 | 122° | 124km/h | 11505m | 2.7m/s | -54.9°C | 0% | 0hPa | 0V | 00:00:00 | 00:00:00 | 00:00:00 | |
| WB7NNF | 2026-08-31 05:45:24 | 47.54308 | -117.17831 | 122° | 122km/h | 11430m | 3.0m/s | -54.9°C | 0% | 0hPa | 0V | 00:00:00 | 00:00:00 | 00:00:00 | |
| WB7NNF | 2026-08-31 05:45:02 | 47.54652 | -117.18712 | 121° | 110km/h | 11337m | 3.4m/s | -54.3°C | 0% | 0hPa | 0V | 00:00:00 | 00:00:00 | 00:00:00 | |
| WB7NNF | 2026-08-31 05:44:40 | 47.54936 | -117.19502 | 120° | 113km/h | 11252m | 3.5m/s | -53.8°C | 0% | 0hPa | 0V | 00:00:00 | 00:00:00 | 00:00:00 | |
| WB7NNF | 2026-08-31 05:44:19 | 47.55192 | -117.20262 | 117° | 108km/h | 11168m | 4.0m/s | -53.1°C | 0% | 0hPa | 0V | 00:00:00 | 00:00:00 | 00:00:00 | |
| WB7NNF | 2026-08-31 05:43:59 | 47.55425 | -117.20988 | 119° | 88km/h | 11074m | 3.4m/s | -52.4°C | 0% | 0hPa | 0V | 00:00:00 | 00:00:00 | 00:00:00 | |
| WB7NNF | 2026-08-31 05:43:39 | 47.55632 | -117.21625 | 121° | 93km/h | 10973m | 4.1m/s | -52.0°C | 0% | 0hPa | 0V | 00:00:00 | 00:00:00 | 00:00:00 | |
| WB7NNF | 2026-08-31 05:43:18 | 47.55885 | -117.22268 | 123° | 89km/h | 10891m | 3.8m/s | -51.6°C | 0% | 0hPa | 0V | 00:00:00 | 00:00:00 | 00:00:00 | |
| WB7NNF | 2026-08-31 05:42:57 | 47.56149 | -117.22919 | 125° | 91km/h | 10809m | 3.2m/s | -50.9°C | 0% | 0hPa | 0V | 00:00:00 | 00:00:00 | 00:00:00 | |
| WB7NNF | 2026-08-31 05:42:36 | 47.56401 | -117.23535 | 123° | 99km/h | 10728m | 5.2m/s | -50.2°C | 0% | 0hPa | 0V | 00:00:00 | 00:00:00 | 00:00:00 | |
| WB7NNF | 2026-08-31 05:42:16 | 47.56681 | -117.24186 | 120° | 102km/h | 10645m | 3.9m/s | -49.5°C | 0% | 0hPa | 0V | 00:00:00 | 00:00:00 | 00:00:00 | |
| WB7NNF | 2026-08-31 05:41:55 | 47.56937 | -117.24819 | 123° | 99km/h | 10563m | 4.4m/s | -48.8°C | 0% | 0hPa | 0V | 00:00:00 | 00:00:00 | 00:00:00 | |
| WB7NNF | 2026-08-31 05:41:35 | 47.57204 | -117.25491 | 119° | 108km/h | 10480m | 3.4m/s | -48.0°C | 0% | 0hPa | 0V | 00:00:00 | 00:00:00 | 00:00:00 | |
| WB7NNF | 2026-08-31 05:41:14 | 47.57448 | -117.26139 | 125° | 106km/h | 10404m | 4.5m/s | -47.4°C | 0% | 0hPa | 0V | 00:00:00 | 00:00:00 | 00:00:00 | |
| WB7NNF | 2026-08-31 05:40:54 | 47.57718 | -117.26815 | 122° | 102km/h | 10324m | 4.5m/s | -46.8°C | 0% | 0hPa | 0V | 00:00:00 | 00:00:00 | 00:00:00 | |
| WB7NNF | 2026-08-31 05:40:33 | 47.57965 | -117.27475 | 120° | 93km/h | 10242m | 3.3m/s | -46.1°C | 0% | 0hPa | 0V | 00:00:00 | 00:00:00 | 00:00:00 | |
| WB7NNF | 2026-08-31 05:40:11 | 47.58196 | -117.28149 | 122° | 102km/h | 10162m | 4.2m/s | -45.4°C | 0% | 0hPa | 0V | 00:00:00 | 00:00:00 | 00:00:00 | |
| WB7NNF | 2026-08-31 05:39:49 | 47.58416 | -117.28857 | 123° | 84km/h | 10068m | 5.2m/s | -44.5°C | 0% | 0hPa | 0V | 00:00:00 | 00:00:00 | 00:00:00 | |
| WB7NNF | 2026-08-31 05:39:26 | 47.58632 | -117.29627 | 114° | 88km/h | 9968m | 4.4m/s | -43.7°C | 0% | 0hPa | 0V | 00:00:00 | 00:00:00 | 00:00:00 | |
| WB7NNF | 2026-08-31 05:39:06 | 47.58819 | -117.30296 | 108° | 97km/h | 9891m | 3.2m/s | -43.2°C | 0% | 0hPa | 0V | 00:00:00 | 00:00:00 | 00:00:00 | |
| WB7NNF | 2026-08-31 05:38:42 | 47.59023 | -117.31089 | 107° | 91km/h | 9803m | 3.9m/s | -42.4°C | 0% | 0hPa | 0V | 00:00:00 | 00:00:00 | 00:00:00 | |
| WB7NNF | 2026-08-31 05:38:21 | 47.59217 | -117.31808 | 109° | 95km/h | 9724m | 4.0m/s | -41.7°C | 0% | 0hPa | 0V | 00:00:00 | 00:00:00 | 00:00:00 | |
| WB7NNF | 2026-08-31 05:37:58 | 47.59422 | -117.32614 | 118° | 100km/h | 9630m | 3.2m/s | -40.9°C | 0% | 0hPa | 0V | 00:00:00 | 00:00:00 | 00:00:00 | |
| WB7NNF | 2026-08-31 05:37:38 | 47.59638 | -117.33324 | 113° | 91km/h | 9543m | 4.2m/s | -40.1°C | 0% | 0hPa | 0V | 00:00:00 | 00:00:00 | 00:00:00 | |
| WB7NNF | 2026-08-31 05:37:12 | 47.59904 | -117.34234 | 111° | 88km/h | 9433m | 4.5m/s | -39.1°C | 0% | 0hPa | 0V | 00:00:00 | 00:00:00 | 00:00:00 | |
| WB7NNF | 2026-08-31 05:36:49 | 47.60108 | -117.35014 | 114° | 102km/h | 9348m | 4.4m/s | -38.6°C | 0% | 0hPa | 0V | 00:00:00 | 00:00:00 | 00:00:00 | |
| WB7NNF | 2026-08-31 05:36:19 | 47.60431 | -117.36053 | 118° | 99km/h | 9232m | 4.0m/s | -38.1°C | 0% | 0hPa | 0V | 00:00:00 | 00:00:00 | 00:00:00 | |
| WB7NNF | 2026-08-31 05:35:59 | 47.60650 | -117.36749 | 112° | 93km/h | 9148m | 5.1m/s | -37.5°C | 0% | 0hPa | 0V | 00:00:00 | 00:00:00 | 00:00:00 | |
| WB7NNF | 2026-08-31 05:35:38 | 47.60834 | -117.37382 | 105° | 100km/h | 9064m | 3.6m/s | -36.8°C | 0% | 0hPa | 0V | 00:00:00 | 00:00:00 | 00:00:00 | |
| WB7NNF | 2026-08-31 05:35:18 | 47.60992 | -117.38017 | 115° | 82km/h | 8963m | 5.1m/s | -36.1°C | 0% | 0hPa | 0V | 00:00:00 | 00:00:00 | 00:00:00 | |
| WB7NNF | 2026-08-31 05:34:57 | 47.61123 | -117.38582 | 114° | 86km/h | 8880m | 3.0m/s | -35.8°C | 0% | 0hPa | 0V | 00:00:00 | 00:00:00 | 00:00:00 | |
| WB7NNF | 2026-08-31 05:34:37 | 47.61258 | -117.39175 | 106° | 84km/h | 8800m | 3.9m/s | -35.2°C | 0% | 0hPa | 0V | 00:00:00 | 00:00:00 | 00:00:00 | |
| WB7NNF | 2026-08-31 05:34:16 | 47.61394 | -117.39731 | 118° | 84km/h | 8727m | 3.1m/s | -34.6°C | 0% | 0hPa | 0V | 00:00:00 | 00:00:00 | 00:00:00 | |
| WB7NNF | 2026-08-31 05:33:56 | 47.61555 | -117.40288 | 116° | 82km/h | 8651m | 4.4m/s | -34.0°C | 0% | 0hPa | 0V | 00:00:00 | 00:00:00 | 00:00:00 | |
| WB7NNF | 2026-08-31 05:33:35 | 47.61697 | -117.40827 | 108° | 75km/h | 8578m | 3.1m/s | -33.4°C | 0% | 0hPa | 0V | 00:00:00 | 00:00:00 | 00:00:00 | |
| WB7NNF | 2026-08-31 05:33:15 | 47.61834 | -117.41360 | 114° | 69km/h | 8498m | 4.2m/s | -32.8°C | 0% | 0hPa | 0V | 00:00:00 | 00:00:00 | 00:00:00 | |
| WB7NNF | 2026-08-31 05:32:55 | 47.61976 | -117.41919 | 109° | 75km/h | 8422m | 4.4m/s | -32.2°C | 0% | 0hPa | 0V | 00:00:00 | 00:00:00 | 00:00:00 | |
| WB7NNF | 2026-08-31 05:32:34 | 47.62101 | -117.42446 | 114° | 73km/h | 8350m | 4.6m/s | -31.7°C | 0% | 0hPa | 0V | 00:00:00 | 00:00:00 | 00:00:00 | |
| WB7NNF | 2026-08-31 05:32:13 | 47.62218 | -117.42971 | 111° | 66km/h | 8267m | 5.0m/s | -31.0°C | 0% | 0hPa | 0V | 00:00:00 | 00:00:00 | 00:00:00 | |
| WB7NNF | 2026-08-31 05:31:52 | 47.62327 | -117.43453 | 110° | 60km/h | 8188m | 4.3m/s | -30.4°C | 0% | 0hPa | 0V | 00:00:00 | 00:00:00 | 00:00:00 | |
| WB7NNF | 2026-08-31 05:31:32 | 47.62443 | -117.43977 | 103° | 62km/h | 8110m | 3.9m/s | -29.9°C | 0% | 0hPa | 0V | 00:00:00 | 00:00:00 | 00:00:00 | |
| WB7NNF | 2026-08-31 05:30:51 | 47.62621 | -117.45077 | 106° | 77km/h | 7952m | 4.0m/s | -29.1°C | 0% | 0hPa | 0V | 00:00:00 | 00:00:00 | 00:00:00 | |
| WB7NNF | 2026-08-31 05:30:30 | 47.62695 | -117.45606 | 96° | 75km/h | 7876m | 4.4m/s | -28.4°C | 0% | 0hPa | 0V | 00:00:00 | 00:00:00 | 00:00:00 | |
| WB7NNF | 2026-08-31 05:30:10 | 47.62762 | -117.46161 | 116° | 77km/h | 7791m | 4.4m/s | -27.8°C | 0% | 0hPa | 0V | 00:00:00 | 00:00:00 | 00:00:00 | |
| WB7NNF | 2026-08-31 05:29:49 | 47.62853 | -117.46643 | 104° | 60km/h | 7705m | 3.1m/s | -27.0°C | 0% | 0hPa | 0V | 00:00:00 | 00:00:00 | 00:00:00 | |
| WB7NNF | 2026-08-31 05:29:29 | 47.62947 | -117.47159 | 100° | 73km/h | 7618m | 4.2m/s | -26.3°C | 0% | 0hPa | 0V | 00:00:00 | 00:00:00 | 00:00:00 | |
| WB7NNF | 2026-08-31 05:29:03 | 47.63055 | -117.47770 | 113° | 71km/h | 7517m | 3.7m/s | -25.4°C | 0% | 0hPa | 0V | 00:00:00 | 00:00:00 | 00:00:00 | |
| WB7NNF | 2026-08-31 05:28:40 | 47.63163 | -117.48301 | 106° | 71km/h | 7398m | 5.3m/s | -24.3°C | 0% | 0hPa | 0V | 00:00:00 | 00:00:00 | 00:00:00 | |
| WB7NNF | 2026-08-31 05:28:20 | 47.63247 | -117.48787 | 100° | 60km/h | 7306m | 3.6m/s | -23.6°C | 0% | 0hPa | 0V | 00:00:00 | 00:00:00 | 00:00:00 | |
| WB7NNF | 2026-08-31 05:27:58 | 47.63340 | -117.49268 | 103° | 64km/h | 7224m | 4.0m/s | -22.9°C | 0% | 0hPa | 0V | 00:00:00 | 00:00:00 | 00:00:00 | |
| WB7NNF | 2026-08-31 05:27:37 | 47.63445 | -117.49701 | 109° | 60km/h | 7146m | 3.3m/s | -22.3°C | 0% | 0hPa | 0V | 00:00:00 | 00:00:00 | 00:00:00 | |
| WB7NNF | 2026-08-31 05:27:16 | 47.63548 | -117.50116 | 117° | 64km/h | 7075m | 3.2m/s | -21.6°C | 0% | 0hPa | 0V | 00:00:00 | 00:00:00 | 00:00:00 | |
| WB7NNF | 2026-08-31 05:26:32 | 47.63844 | -117.50985 | 123° | 58km/h | 6908m | 3.4m/s | -20.3°C | 0% | 0hPa | 0V | 00:00:00 | 00:00:00 | 00:00:00 | |
| WB7NNF | 2026-08-31 05:26:09 | 47.64037 | -117.51427 | 120° | 60km/h | 6817m | 3.6m/s | -19.7°C | 0% | 0hPa | 0V | 00:00:00 | 00:00:00 | 00:00:00 | |
| WB7NNF | 2026-08-31 05:25:47 | 47.64221 | -117.51819 | 121° | 49km/h | 6728m | 4.5m/s | -20.6°C | 0% | 0hPa | 0V | 00:00:00 | 00:00:00 | 00:00:00 | |
| WB7NNF | 2026-08-31 05:25:13 | 47.64458 | -117.52426 | 131° | 44km/h | 6586m | 5.0m/s | -20.7°C | 0% | 0hPa | 0V | 00:00:00 | 00:00:00 | 00:00:00 |